Time;durP1;ratioP1;P1;durP2;ratioP2;P2;SDS_P1;SDS_P2;PMS_P1;PMS_P2;Temp;Humidity;BMP_temperature;BMP_pressure;BME280_temperature;BME280_humidity;BME280_pressure;Samples;Min_cycle;Max_cycle;Signal;HPM_P1;HPM_P2
2022/03/04 00:01:29;;;;;;;;;;;22.60;51.30;;;;;;5035086;28;957;-36
2022/03/04 00:03:57;;;;;;;;;;;22.50;51.30;;;;;;5034172;28;1005;-35
2022/03/04 00:06:24;;;;;;;;;;;22.60;51.40;;;;;;5035925;28;1963;-36
2022/03/04 00:08:50;;;;;;;;;;;22.50;51.40;;;;;;5036600;28;988;-34
2022/03/04 00:11:19;;;;;;;;;;;22.50;51.30;;;;;;5036191;28;943;-35
2022/03/04 00:13:46;;;;;;;;;;;22.50;51.40;;;;;;5036394;27;976;-35
2022/03/04 00:16:12;;;;;;;;;;;22.50;51.30;;;;;;5036563;28;1042;-34
2022/03/04 00:18:39;;;;;;;;;;;22.50;51.20;;;;;;5036373;28;1016;-34
2022/03/04 00:21:07;;;;;;;;;;;22.50;51.30;;;;;;5035875;28;952;-36
2022/03/04 00:23:34;;;;;;;;;;;22.50;51.30;;;;;;5035954;28;999;-36
2022/03/04 00:26:00;;;;;;;;;;;22.50;51.20;;;;;;5035362;28;1988;-36
2022/03/04 00:28:29;;;;;;;;;;;22.50;51.20;;;;;;5035898;28;948;-36
2022/03/04 00:30:56;;;;;;;;;;;22.50;51.30;;;;;;5035716;28;944;-35
2022/03/04 00:33:22;;;;;;;;;;;22.40;51.20;;;;;;5036125;28;1023;-34
2022/03/04 00:35:49;;;;;;;;;;;22.40;51.10;;;;;;5035967;28;1001;-34
2022/03/04 00:38:16;;;;;;;;;;;22.40;51.30;;;;;;5035858;28;1039;-37
2022/03/04 00:40:43;;;;;;;;;;;22.40;51.20;;;;;;5035632;28;930;-35
2022/03/04 00:43:10;;;;;;;;;;;22.40;51.30;;;;;;5034508;28;1023;-35
2022/03/04 00:45:38;;;;;;;;;;;22.40;51.10;;;;;;5034381;28;1975;-35
2022/03/04 00:48:05;;;;;;;;;;;22.40;51.20;;;;;;5034210;28;980;-35
2022/03/04 00:50:32;;;;;;;;;;;22.40;51.20;;;;;;5034425;28;957;-36
2022/03/04 00:53:01;;;;;;;;;;;22.40;51.30;;;;;;5034626;28;912;-35
2022/03/04 00:55:28;;;;;;;;;;;22.30;51.10;;;;;;5035389;28;980;-34
2022/03/04 00:57:54;;;;;;;;;;;22.40;51.10;;;;;;5035337;28;956;-36
2022/03/04 01:00:21;;;;;;;;;;;22.30;51.10;;;;;;5033776;28;1024;-36
2022/03/04 01:02:49;;;;;;;;;;;22.40;51.10;;;;;;5033593;28;1001;-34
2022/03/04 01:05:16;;;;;;;;;;;22.30;51.00;;;;;;5033551;28;1905;-35
2022/03/04 01:07:44;;;;;;;;;;;22.30;51.20;;;;;;5033457;28;1039;-34
2022/03/04 01:10:11;;;;;;;;;;;22.30;51.10;;;;;;5033574;28;999;-34
2022/03/04 01:12:38;;;;;;;;;;;22.30;51.10;;;;;;5032953;28;1012;-35
2022/03/04 01:15:05;;;;;;;;;;;22.30;51.10;;;;;;5033348;28;924;-35
2022/03/04 01:17:32;;;;;;;;;;;22.30;51.10;;;;;;5033418;28;1068;-36
2022/03/04 01:20:00;;;;;;;;;;;22.30;51.10;;;;;;5033529;28;987;-35
2022/03/04 01:22:27;;;;;;;;;;;22.30;51.10;;;;;;5033501;28;1023;-36
2022/03/04 01:24:54;;;;;;;;;;;22.30;51.10;;;;;;5033379;28;1977;-35
2022/03/04 01:27:20;;;;;;;;;;;22.30;51.00;;;;;;5033372;28;936;-35
2022/03/04 01:29:47;;;;;;;;;;;22.20;51.00;;;;;;5033296;28;971;-36
2022/03/04 01:32:14;;;;;;;;;;;22.20;51.10;;;;;;5033454;28;945;-35
2022/03/04 01:34:41;;;;;;;;;;;22.20;51.10;;;;;;5032800;28;992;-34
2022/03/04 01:37:09;;;;;;;;;;;22.20;51.00;;;;;;5033007;28;944;-35
2022/03/04 01:39:36;;;;;;;;;;;22.20;51.00;;;;;;5032313;28;940;-35
2022/03/04 01:42:03;;;;;;;;;;;22.20;51.00;;;;;;5033638;28;950;-34
2022/03/04 01:44:30;;;;;;;;;;;22.20;51.00;;;;;;5034381;28;1032;-34
2022/03/04 01:46:57;;;;;;;;;;;22.20;51.00;;;;;;5034232;28;1910;-35
2022/03/04 01:49:23;;;;;;;;;;;22.20;52.00;;;;;;5034640;28;892;-34
2022/03/04 01:51:50;;;;;;;;;;;22.20;51.00;;;;;;5033727;28;988;-36
2022/03/04 01:54:18;;;;;;;;;;;22.10;50.90;;;;;;5034305;28;969;-36
2022/03/04 01:56:45;;;;;;;;;;;22.20;51.00;;;;;;5033620;28;959;-34
2022/03/04 01:59:12;;;;;;;;;;;22.20;50.90;;;;;;5033969;28;1004;-36
2022/03/04 02:01:38;;;;;;;;;;;22.20;51.00;;;;;;5034813;28;977;-34
2022/03/04 02:04:05;;;;;;;;;;;22.10;50.90;;;;;;5033490;28;1066;-34
2022/03/04 02:06:32;;;;;;;;;;;22.10;50.80;;;;;;5033714;28;1911;-36
2022/03/04 02:08:59;;;;;;;;;;;22.10;50.90;;;;;;5033622;28;879;-34
2022/03/04 02:11:27;;;;;;;;;;;22.20;50.90;;;;;;5033970;28;900;-35
2022/03/04 02:13:54;;;;;;;;;;;22.10;51.00;;;;;;5034037;28;1005;-35
2022/03/04 02:16:24;;;;;;;;;;;22.10;50.90;;;;;;5033929;28;1030;-35
2022/03/04 02:18:50;;;;;;;;;;;22.10;50.90;;;;;;5033564;28;941;-33
2022/03/04 02:21:17;;;;;;;;;;;22.10;50.90;;;;;;5033696;28;1393;-36
2022/03/04 02:23:46;;;;;;;;;;;22.10;50.90;;;;;;5032869;28;927;-34
2022/03/04 02:26:12;;;;;;;;;;;22.10;50.90;;;;;;5034544;28;1906;-35
2022/03/04 02:28:39;;;;;;;;;;;22.10;50.90;;;;;;5036126;28;945;-38
2022/03/04 02:31:06;;;;;;;;;;;22.00;52.10;;;;;;5037728;28;989;-35
2022/03/04 02:33:33;;;;;;;;;;;22.00;50.80;;;;;;5036981;28;944;-36
2022/03/04 02:35:59;;;;;;;;;;;22.00;50.90;;;;;;5037801;28;1085;-34
2022/03/04 02:38:26;;;;;;;;;;;22.00;50.80;;;;;;5037326;28;921;-36
2022/03/04 02:40:54;;;;;;;;;;;22.00;50.90;;;;;;5035698;28;1035;-34
2022/03/04 02:43:21;;;;;;;;;;;22.00;50.90;;;;;;5036802;28;1012;-35
2022/03/04 02:45:49;;;;;;;;;;;22.00;50.90;;;;;;5037553;28;1910;-36
2022/03/04 02:48:16;;;;;;;;;;;22.00;50.90;;;;;;5037371;28;980;-35
2022/03/04 02:50:42;;;;;;;;;;;22.00;50.80;;;;;;5037585;28;1004;-36
2022/03/04 02:53:09;;;;;;;;;;;22.00;50.90;;;;;;5037567;28;995;-35
2022/03/04 02:55:36;;;;;;;;;;;22.00;50.80;;;;;;5037570;27;972;-34
2022/03/04 02:58:04;;;;;;;;;;;22.00;50.80;;;;;;5037692;28;992;-34
2022/03/04 03:00:31;;;;;;;;;;;22.00;50.80;;;;;;5038022;27;948;-34
2022/03/04 03:02:58;;;;;;;;;;;21.90;50.80;;;;;;5037803;28;980;-35
2022/03/04 03:05:25;;;;;;;;;;;21.90;50.80;;;;;;5037650;28;1898;-34
2022/03/04 03:07:52;;;;;;;;;;;21.90;50.80;;;;;;5037680;28;1052;-35
2022/03/04 03:10:19;;;;;;;;;;;22.00;50.80;;;;;;5037285;27;1007;-35
2022/03/04 03:12:45;;;;;;;;;;;21.90;50.70;;;;;;5037454;28;2335;-34
2022/03/04 03:15:15;;;;;;;;;;;22.00;50.70;;;;;;5037060;28;933;-34
2022/03/04 03:17:41;;;;;;;;;;;21.90;50.80;;;;;;5037011;28;940;-35
2022/03/04 03:20:08;;;;;;;;;;;22.00;50.80;;;;;;5037109;28;977;-34
2022/03/04 03:22:35;;;;;;;;;;;21.90;50.80;;;;;;5037343;28;929;-34
2022/03/04 03:28:05;;;;;;;;;;;21.90;50.80;;;;;;5037504;28;899;-36
2022/03/04 03:30:33;;;;;;;;;;;21.90;50.70;;;;;;5036955;28;929;-34
2022/03/04 03:33:00;;;;;;;;;;;21.90;50.60;;;;;;5037284;28;980;-34
2022/03/04 03:35:27;;;;;;;;;;;22.00;50.70;;;;;;5036801;28;992;-34
2022/03/04 03:37:54;;;;;;;;;;;21.90;50.70;;;;;;5035271;28;1001;-34
2022/03/04 03:40:20;;;;;;;;;;;21.90;50.60;;;;;;5036854;28;1046;-34
2022/03/04 03:42:47;;;;;;;;;;;21.90;50.70;;;;;;5036522;28;989;-36
2022/03/04 03:45:14;;;;;;;;;;;21.90;50.70;;;;;;5036867;28;1760;-36
2022/03/04 03:47:42;;;;;;;;;;;21.90;50.70;;;;;;5036883;28;1972;-34
2022/03/04 03:50:10;;;;;;;;;;;21.90;50.60;;;;;;5036649;28;995;-34
2022/03/04 03:52:37;;;;;;;;;;;21.90;50.60;;;;;;5036575;28;960;-35
2022/03/04 03:55:04;;;;;;;;;;;21.90;50.70;;;;;;5036585;28;1020;-35
2022/03/04 03:57:31;;;;;;;;;;;21.80;50.60;;;;;;5036251;28;1055;-34
2022/03/04 03:59:58;;;;;;;;;;;21.80;50.60;;;;;;5036479;27;986;-34
2022/03/04 04:02:26;;;;;;;;;;;21.80;50.70;;;;;;5036304;28;936;-34
2022/03/04 04:04:54;;;;;;;;;;;21.80;50.60;;;;;;5035962;28;925;-36
2022/03/04 04:07:20;;;;;;;;;;;21.80;50.70;;;;;;5036120;28;1948;-34
2022/03/04 04:09:47;;;;;;;;;;;21.80;51.70;;;;;;5036415;28;916;-35
2022/03/04 04:12:14;;;;;;;;;;;21.80;50.60;;;;;;5036056;28;928;-34
2022/03/04 04:14:40;;;;;;;;;;;21.80;50.60;;;;;;5036255;28;1011;-36
2022/03/04 04:17:07;;;;;;;;;;;21.80;50.60;;;;;;5036176;28;1004;-35
2022/03/04 04:19:34;;;;;;;;;;;21.80;50.70;;;;;;5036083;28;987;-35
2022/03/04 04:22:02;;;;;;;;;;;21.80;50.60;;;;;;5036599;28;1003;-34
2022/03/04 04:24:29;;;;;;;;;;;21.80;50.60;;;;;;5034806;28;1025;-34
2022/03/04 04:26:56;;;;;;;;;;;21.70;50.50;;;;;;5035995;28;1907;-35
2022/03/04 04:29:22;;;;;;;;;;;21.70;50.50;;;;;;5035655;28;952;-34
2022/03/04 04:31:49;;;;;;;;;;;21.80;50.60;;;;;;5036227;28;971;-36
2022/03/04 04:34:16;;;;;;;;;;;21.80;50.60;;;;;;5036277;28;928;-35
2022/03/04 04:36:43;;;;;;;;;;;21.80;50.60;;;;;;5035512;28;905;-35
2022/03/04 04:39:11;;;;;;;;;;;21.70;50.60;;;;;;5035541;28;951;-38
2022/03/04 04:41:38;;;;;;;;;;;21.70;50.60;;;;;;5036040;28;880;-34
2022/03/04 04:44:05;;;;;;;;;;;21.80;50.60;;;;;;5035450;28;1127;-35
2022/03/04 04:46:32;;;;;;;;;;;21.80;50.50;;;;;;5034907;28;1918;-36
2022/03/04 04:48:58;;;;;;;;;;;21.90;50.60;;;;;;5035307;28;984;-36
2022/03/04 04:51:25;;;;;;;;;;;21.90;50.60;;;;;;5035942;28;924;-34
2022/03/04 04:53:53;;;;;;;;;;;22.00;50.70;;;;;;5035527;28;964;-35
2022/03/04 04:56:22;;;;;;;;;;;22.00;50.50;;;;;;5035167;28;968;-34
2022/03/04 04:58:48;;;;;;;;;;;22.10;50.50;;;;;;5035922;28;1045;-35
2022/03/04 05:01:15;;;;;;;;;;;22.10;50.40;;;;;;5034783;28;960;-37
2022/03/04 05:03:43;;;;;;;;;;;22.10;50.50;;;;;;5034562;28;1050;-34
2022/03/04 05:06:10;;;;;;;;;;;22.20;50.60;;;;;;5035137;28;1910;-36
2022/03/04 05:08:37;;;;;;;;;;;22.20;50.50;;;;;;5035108;28;1047;-36
2022/03/04 05:11:03;;;;;;;;;;;22.20;50.50;;;;;;5034971;27;1984;-36
2022/03/04 05:13:31;;;;;;;;;;;22.20;50.50;;;;;;5034736;27;1027;-34
2022/03/04 05:15:58;;;;;;;;;;;22.20;50.50;;;;;;5035114;28;1020;-36
2022/03/04 05:18:25;;;;;;;;;;;22.30;50.50;;;;;;5035692;28;1008;-34
2022/03/04 05:20:52;;;;;;;;;;;22.30;50.50;;;;;;5035160;28;1016;-36
2022/03/04 05:25:59;;;;;;;;;;;22.20;50.50;;;;;;5037708;28;1905;-36
2022/03/04 05:28:26;;;;;;;;;;;22.20;50.60;;;;;;5035093;28;1013;-35
2022/03/04 05:30:54;;;;;;;;;;;22.10;50.60;;;;;;5034059;28;996;-34
2022/03/04 05:33:21;;;;;;;;;;;22.20;50.60;;;;;;5033576;28;933;-34
2022/03/04 05:35:47;;;;;;;;;;;22.20;50.60;;;;;;5035030;28;968;-35
2022/03/04 05:38:14;;;;;;;;;;;22.20;50.60;;;;;;5032835;28;1112;-35
2022/03/04 05:40:41;;;;;;;;;;;22.20;50.50;;;;;;5033818;28;1011;-37
2022/03/04 05:43:08;;;;;;;;;;;22.20;50.50;;;;;;5034471;28;1043;-36
2022/03/04 05:45:35;;;;;;;;;;;22.20;50.50;;;;;;5033323;28;1005;-34
2022/03/04 05:48:03;;;;;;;;;;;22.20;50.50;;;;;;5033315;28;1983;-36
2022/03/04 05:50:30;;;;;;;;;;;22.20;50.50;;;;;;5034026;28;1775;-34
2022/03/04 05:52:57;;;;;;;;;;;22.20;50.50;;;;;;5034602;28;1033;-35
2022/03/04 05:55:23;;;;;;;;;;;22.20;50.50;;;;;;5033977;28;1012;-34
2022/03/04 05:57:50;;;;;;;;;;;22.20;50.40;;;;;;5033241;28;988;-37
2022/03/04 06:00:17;;;;;;;;;;;22.20;50.30;;;;;;5032425;28;987;-36
2022/03/04 06:02:44;;;;;;;;;;;22.20;50.30;;;;;;5035674;28;933;-36
2022/03/04 06:05:12;;;;;;;;;;;22.20;50.30;;;;;;5036306;28;983;-36
2022/03/04 06:07:39;;;;;;;;;;;22.20;50.30;;;;;;5035999;28;1993;-35
2022/03/04 06:10:06;;;;;;;;;;;22.10;50.40;;;;;;5036109;28;968;-40
2022/03/04 06:12:33;;;;;;;;;;;22.10;50.50;;;;;;5035973;28;1308;-37
2022/03/04 06:15:00;;;;;;;;;;;22.10;50.60;;;;;;5035797;28;1004;-35
2022/03/04 06:17:27;;;;;;;;;;;22.10;50.60;;;;;;5036229;28;967;-35
2022/03/04 06:19:54;;;;;;;;;;;22.10;50.60;;;;;;5034701;28;1039;-35
2022/03/04 06:22:22;;;;;;;;;;;22.10;50.60;;;;;;5035513;28;954;-35
2022/03/04 06:24:49;;;;;;;;;;;22.10;50.60;;;;;;5033957;28;984;-34
2022/03/04 06:27:16;;;;;;;;;;;22.10;50.50;;;;;;5033939;28;1882;-34
2022/03/04 06:29:42;;;;;;;;;;;22.10;51.60;;;;;;5035389;28;925;-34
2022/03/04 06:32:11;;;;;;;;;;;22.00;50.50;;;;;;5034489;28;996;-36
2022/03/04 06:34:37;;;;;;;;;;;22.00;50.50;;;;;;5035749;28;975;-36
2022/03/04 06:37:05;;;;;;;;;;;22.10;50.60;;;;;;5034958;28;952;-35
2022/03/04 06:39:33;;;;;;;;;;;22.00;50.50;;;;;;5036648;28;964;-35
2022/03/04 06:41:59;;;;;;;;;;;22.00;50.60;;;;;;5005118;28;1715;-35
2022/03/04 06:44:26;;;;;;;;;;;22.00;50.50;;;;;;4995607;28;956;-35
2022/03/04 06:46:53;;;;;;;;;;;22.00;50.50;;;;;;4994733;28;1906;-36
2022/03/04 06:49:20;;;;;;;;;;;22.00;50.40;;;;;;4995882;28;972;-35
2022/03/04 06:51:47;;;;;;;;;;;22.00;50.40;;;;;;4995212;28;977;-35
2022/03/04 06:54:14;;;;;;;;;;;22.00;50.40;;;;;;4995798;28;1027;-36
2022/03/04 06:56:42;;;;;;;;;;;22.00;50.40;;;;;;4994413;28;944;-34
2022/03/04 06:59:09;;;;;;;;;;;22.00;50.50;;;;;;4995301;28;978;-36
2022/03/04 07:01:36;;;;;;;;;;;22.00;50.50;;;;;;4995396;28;1023;-35
2022/03/04 07:04:03;;;;;;;;;;;21.90;50.50;;;;;;4994804;28;1087;-37
2022/03/04 07:06:30;;;;;;;;;;;22.00;50.40;;;;;;4994824;28;1906;-37
2022/03/04 07:08:57;;;;;;;;;;;22.00;50.30;;;;;;4995598;28;888;-36
2022/03/04 07:11:23;;;;;;;;;;;22.00;50.30;;;;;;4995736;28;1006;-36
2022/03/04 07:13:51;;;;;;;;;;;22.00;50.30;;;;;;4994302;28;968;-37
2022/03/04 07:16:18;;;;;;;;;;;22.00;50.50;;;;;;4995094;28;937;-37
2022/03/04 07:18:45;;;;;;;;;;;22.00;50.30;;;;;;4994991;28;912;-37
2022/03/04 07:21:13;;;;;;;;;;;22.00;50.30;;;;;;4994675;28;945;-35
2022/03/04 07:23:40;;;;;;;;;;;21.90;50.40;;;;;;4994295;28;881;-36
2022/03/04 07:26:09;;;;;;;;;;;22.10;50.40;;;;;;4993660;28;1008;-35
2022/03/04 07:28:35;;;;;;;;;;;22.10;50.60;;;;;;4993319;28;1902;-35
2022/03/04 07:31:04;;;;;;;;;;;22.00;50.60;;;;;;4993924;28;899;-34
2022/03/04 07:33:30;;;;;;;;;;;21.90;50.70;;;;;;4994279;28;1004;-37
2022/03/04 07:35:57;;;;;;;;;;;22.00;50.70;;;;;;4993952;28;985;-38
2022/03/04 07:38:24;;;;;;;;;;;22.00;50.60;;;;;;4994443;28;1032;-38
2022/03/04 07:40:50;;;;;;;;;;;22.00;50.60;;;;;;4994515;28;900;-38
2022/03/04 07:43:18;;;;;;;;;;;21.90;50.60;;;;;;4995160;28;987;-37
2022/03/04 07:45:45;;;;;;;;;;;21.90;50.50;;;;;;4994964;28;868;-38
2022/03/04 07:48:13;;;;;;;;;;;21.90;50.50;;;;;;4995358;28;1938;-38
2022/03/04 07:50:39;;;;;;;;;;;21.90;50.50;;;;;;4995834;28;916;-37
2022/03/04 07:53:06;;;;;;;;;;;21.90;50.50;;;;;;4995136;28;1062;-38
2022/03/04 07:55:33;;;;;;;;;;;21.90;50.40;;;;;;4995624;28;1054;-37
2022/03/04 07:58:00;;;;;;;;;;;21.90;50.50;;;;;;4995935;28;1203;-38
2022/03/04 08:00:27;;;;;;;;;;;21.90;50.40;;;;;;4996009;28;976;-37
2022/03/04 08:02:54;;;;;;;;;;;21.90;50.30;;;;;;4995518;28;873;-38
2022/03/04 08:05:22;;;;;;;;;;;21.90;50.30;;;;;;4996406;28;933;-37
2022/03/04 08:07:49;;;;;;;;;;;21.90;50.30;;;;;;4994993;28;1910;-37
2022/03/04 08:10:16;;;;;;;;;;;21.90;50.30;;;;;;4993030;28;948;-37
2022/03/04 08:12:43;;;;;;;;;;;21.90;50.30;;;;;;4993585;28;1043;-38
2022/03/04 08:15:11;;;;;;;;;;;21.90;50.30;;;;;;4994185;28;992;-37
2022/03/04 08:17:38;;;;;;;;;;;21.90;50.40;;;;;;4994800;28;966;-37
2022/03/04 08:20:05;;;;;;;;;;;21.90;50.30;;;;;;4992765;28;928;-38
2022/03/04 08:22:33;;;;;;;;;;;21.90;50.30;;;;;;4992382;28;1039;-36
2022/03/04 08:25:00;;;;;;;;;;;21.90;50.20;;;;;;4992150;28;882;-38
2022/03/04 08:27:27;;;;;;;;;;;21.90;50.20;;;;;;4992008;28;1910;-38
2022/03/04 08:29:53;;;;;;;;;;;21.90;50.10;;;;;;4992634;28;979;-38
2022/03/04 08:32:22;;;;;;;;;;;21.90;50.10;;;;;;4992981;28;987;-38
2022/03/04 08:34:49;;;;;;;;;;;21.90;50.20;;;;;;4994207;28;949;-37
2022/03/04 08:37:16;;;;;;;;;;;21.90;50.10;;;;;;4992489;28;956;-37
2022/03/04 08:39:44;;;;;;;;;;;21.90;50.10;;;;;;4992970;28;1012;-37
2022/03/04 08:42:11;;;;;;;;;;;21.90;50.20;;;;;;4993069;28;989;-38
2022/03/04 08:44:37;;;;;;;;;;;21.90;50.10;;;;;;4992626;28;858;-37
2022/03/04 08:47:05;;;;;;;;;;;21.90;50.20;;;;;;4992449;28;1923;-37
2022/03/04 08:49:31;;;;;;;;;;;21.90;50.10;;;;;;4990016;28;976;-37
2022/03/04 08:51:58;;;;;;;;;;;21.90;50.20;;;;;;4989406;28;935;-38
2022/03/04 08:54:25;;;;;;;;;;;21.90;50.10;;;;;;4990117;28;1042;-39
2022/03/04 08:56:53;;;;;;;;;;;21.90;50.10;;;;;;4989941;28;888;-39
2022/03/04 08:59:20;;;;;;;;;;;21.90;50.30;;;;;;4990383;28;976;-39
2022/03/04 09:01:47;;;;;;;;;;;21.90;50.20;;;;;;4988612;28;1004;-38
2022/03/04 09:04:17;;;;;;;;;;;21.90;50.10;;;;;;4988137;28;888;-38
2022/03/04 09:06:44;;;;;;;;;;;21.90;50.00;;;;;;4950487;28;1145377;-39
2022/03/04 09:09:11;;;;;;;;;;;21.90;50.10;;;;;;4990964;28;1915;-39
2022/03/04 09:11:38;;;;;;;;;;;21.80;50.10;;;;;;4990626;28;952;-39
2022/03/04 09:14:06;;;;;;;;;;;21.80;50.00;;;;;;4991406;28;1182;-39
2022/03/04 09:16:33;;;;;;;;;;;21.80;50.10;;;;;;4991723;28;1031;-35
2022/03/04 09:19:00;;;;;;;;;;;21.80;50.00;;;;;;4990201;28;960;-35
2022/03/04 09:21:28;;;;;;;;;;;21.80;50.00;;;;;;4989338;28;1016;-34
2022/03/04 09:23:54;;;;;;;;;;;21.80;50.10;;;;;;4990304;28;1106;-34
2022/03/04 09:26:21;;;;;;;;;;;21.80;50.10;;;;;;4990068;28;979;-35
2022/03/04 09:28:48;;;;;;;;;;;21.80;50.10;;;;;;4990160;28;1895;-36
2022/03/04 09:31:16;;;;;;;;;;;21.80;50.00;;;;;;4990403;28;1023;-35
2022/03/04 09:33:43;;;;;;;;;;;21.80;50.00;;;;;;4990695;28;976;-33
2022/03/04 09:36:11;;;;;;;;;;;21.80;50.00;;;;;;4989984;28;997;-34
2022/03/04 09:38:38;;;;;;;;;;;21.80;50.10;;;;;;4990362;28;972;-35
2022/03/04 09:41:05;;;;;;;;;;;21.80;50.10;;;;;;4990836;28;1001;-35
2022/03/04 09:43:32;;;;;;;;;;;21.80;50.20;;;;;;4990188;28;933;-36
2022/03/04 09:45:58;;;;;;;;;;;21.80;50.10;;;;;;4989970;28;980;-34
2022/03/04 09:48:26;;;;;;;;;;;21.80;50.10;;;;;;4990855;28;1902;-35
2022/03/04 09:50:53;;;;;;;;;;;21.80;50.20;;;;;;4991152;28;1000;-34
2022/03/04 09:53:20;;;;;;;;;;;21.80;50.20;;;;;;4991961;28;1865;-34
2022/03/04 09:55:47;;;;;;;;;;;21.80;50.20;;;;;;4990039;28;1003;-35
2022/03/04 09:58:14;;;;;;;;;;;21.80;50.20;;;;;;4991416;28;900;-34
2022/03/04 10:00:42;;;;;;;;;;;21.80;50.20;;;;;;4990733;28;909;-36
2022/03/04 10:03:12;;;;;;;;;;;21.80;50.20;;;;;;4990528;28;1011;-34
2022/03/04 10:05:52;;;;;;;;;;;21.80;50.10;;;;;;4990491;28;1016;-35
2022/03/04 10:08:19;;;;;;;;;;;21.80;50.20;;;;;;4990496;28;1972;-33
2022/03/04 10:10:48;;;;;;;;;;;21.80;50.10;;;;;;4992094;28;988;-34
2022/03/04 10:13:15;;;;;;;;;;;21.70;50.00;;;;;;4992033;28;1002;-34
2022/03/04 10:15:52;;;;;;;;;;;21.70;50.10;;;;;;4992488;28;1000;-36
2022/03/04 10:18:26;;;;;;;;;;;21.70;50.10;;;;;;4993256;28;976;-34
2022/03/04 10:20:54;;;;;;;;;;;21.70;50.10;;;;;;4993160;28;937;-35
2022/03/04 10:23:22;;;;;;;;;;;21.80;50.10;;;;;;4993298;28;960;-34
2022/03/04 10:25:49;;;;;;;;;;;21.80;50.20;;;;;;4993130;28;991;-34
2022/03/04 10:28:16;;;;;;;;;;;21.80;50.10;;;;;;4993406;28;1914;-39
2022/03/04 10:30:45;;;;;;;;;;;21.80;50.10;;;;;;4992600;28;992;-35
2022/03/04 10:33:12;;;;;;;;;;;21.80;50.20;;;;;;4992484;28;944;-35
2022/03/04 10:35:39;;;;;;;;;;;21.80;50.10;;;;;;4993544;28;1180;-34
2022/03/04 10:38:17;;;;;;;;;;;21.80;50.00;;;;;;4993173;28;999;-35
2022/03/04 10:40:44;;;;;;;;;;;21.70;50.10;;;;;;4992892;28;941;-35
2022/03/04 10:43:11;;;;;;;;;;;21.70;50.10;;;;;;4993075;28;1004;-33
2022/03/04 10:45:40;;;;;;;;;;;21.70;50.00;;;;;;4993161;28;1350;-34
2022/03/04 10:48:08;;;;;;;;;;;21.80;50.10;;;;;;4995625;28;1973;-35
2022/03/04 10:50:36;;;;;;;;;;;21.70;50.10;;;;;;5016151;28;1076;-34
2022/03/04 10:53:04;;;;;;;;;;;21.80;50.10;;;;;;5016367;28;923;-33
2022/03/04 10:55:33;;;;;;;;;;;21.80;50.20;;;;;;5016721;28;932;-35
2022/03/04 10:58:00;;;;;;;;;;;21.80;50.20;;;;;;5015053;28;985;-34
2022/03/04 11:00:29;;;;;;;;;;;21.70;50.10;;;;;;5015571;28;924;-34
2022/03/04 11:02:56;;;;;;;;;;;21.70;50.10;;;;;;5014781;28;974;-35
2022/03/04 11:05:24;;;;;;;;;;;21.70;50.10;;;;;;5013923;28;972;-33
2022/03/04 11:07:51;;;;;;;;;;;21.80;50.20;;;;;;5014480;28;1989;-33
2022/03/04 11:10:18;;;;;;;;;;;21.70;50.10;;;;;;5015452;28;1260;-33
2022/03/04 11:12:49;;;;;;;;;;;21.70;50.10;;;;;;5015819;28;952;-33
2022/03/04 11:15:17;;;;;;;;;;;21.70;50.20;;;;;;5015634;28;1532;-33
2022/03/04 11:17:45;;;;;;;;;;;21.80;50.10;;;;;;5015287;28;1006;-34
2022/03/04 11:20:12;;;;;;;;;;;21.70;50.10;;;;;;5016122;28;1442;-33
2022/03/04 11:22:39;;;;;;;;;;;21.70;50.00;;;;;;5015054;28;1020;-34
2022/03/04 11:25:08;;;;;;;;;;;21.80;50.10;;;;;;5015512;28;955;-33
2022/03/04 11:27:39;;;;;;;;;;;21.70;51.20;;;;;;5014614;28;1157;-34
2022/03/04 11:30:09;;;;;;;;;;;21.70;50.00;;;;;;5015818;28;1965;-34
2022/03/04 11:32:35;;;;;;;;;;;21.80;50.00;;;;;;5014922;28;980;-34
2022/03/04 11:35:03;;;;;;;;;;;21.70;50.00;;;;;;5015679;28;1768;-34
2022/03/04 11:37:31;;;;;;;;;;;21.80;50.00;;;;;;5014750;28;961;-34
2022/03/04 11:40:01;;;;;;;;;;;21.70;49.90;;;;;;5015563;28;928;-33
2022/03/04 11:42:35;;;;;;;;;;;21.80;49.90;;;;;;5014347;28;893;-33
2022/03/04 11:45:03;;;;;;;;;;;21.80;50.00;;;;;;5014350;28;1046;-32
2022/03/04 11:47:37;;;;;;;;;;;21.80;50.00;;;;;;5012495;28;984;-34
2022/03/04 11:50:19;;;;;;;;;;;21.70;50.00;;;;;;5014981;28;1971;-33
2022/03/04 11:52:45;;;;;;;;;;;21.70;50.00;;;;;;5014630;28;1776;-33
2022/03/04 11:55:22;;;;;;;;;;;21.80;50.00;;;;;;5014067;28;1026;-34
2022/03/04 11:57:57;;;;;;;;;;;21.70;50.00;;;;;;5013895;28;1003;-36
2022/03/04 12:00:26;;;;;;;;;;;21.70;50.00;;;;;;5012769;28;1028;-32
2022/03/04 12:02:56;;;;;;;;;;;21.70;49.90;;;;;;5011110;28;955;-32
2022/03/04 12:05:25;;;;;;;;;;;21.70;49.90;;;;;;5011831;28;1051;-33
2022/03/04 12:08:06;;;;;;;;;;;21.70;50.10;;;;;;5009633;28;1223;-32
2022/03/04 12:10:34;;;;;;;;;;;21.70;50.10;;;;;;5009566;28;964;-34
2022/03/04 12:13:02;;;;;;;;;;;21.70;50.00;;;;;;5010195;28;1007;-33
2022/03/04 12:15:30;;;;;;;;;;;21.80;50.00;;;;;;5010384;28;988;-33
2022/03/04 12:18:02;;;;;;;;;;;21.70;50.10;;;;;;5008151;28;939;-33
2022/03/04 12:20:29;;;;;;;;;;;21.70;50.10;;;;;;5009498;28;992;-33
2022/03/04 12:22:57;;;;;;;;;;;21.70;50.00;;;;;;5010109;28;877;-33
2022/03/04 12:25:24;;;;;;;;;;;21.70;50.10;;;;;;5010508;28;983;-33
2022/03/04 12:27:55;;;;;;;;;;;21.70;50.00;;;;;;5010980;28;1015;-35
2022/03/04 12:30:22;;;;;;;;;;;21.70;50.10;;;;;;5010791;28;1918;-34
2022/03/04 12:32:50;;;;;;;;;;;21.70;50.10;;;;;;5009478;28;1866;-33
2022/03/04 12:35:19;;;;;;;;;;;21.70;50.20;;;;;;5009773;28;955;-33
2022/03/04 12:37:45;;;;;;;;;;;21.70;50.30;;;;;;5012170;28;2008;-33
2022/03/04 12:40:13;;;;;;;;;;;21.70;50.10;;;;;;5011924;28;1039;-33
2022/03/04 12:42:40;;;;;;;;;;;21.70;50.10;;;;;;5011122;28;916;-33
2022/03/04 12:45:08;;;;;;;;;;;21.70;50.10;;;;;;5009374;28;924;-34
2022/03/04 12:47:36;;;;;;;;;;;21.70;50.10;;;;;;5008610;28;1054;-32
2022/03/04 12:50:03;;;;;;;;;;;21.70;50.10;;;;;;5009207;28;1895;-33
2022/03/04 12:52:31;;;;;;;;;;;21.70;50.20;;;;;;5008986;28;948;-33
2022/03/04 12:55:02;;;;;;;;;;;21.70;50.10;;;;;;5009924;28;920;-37
2022/03/04 12:57:29;;;;;;;;;;;21.60;50.00;;;;;;5009866;28;1054;-39
2022/03/04 12:59:55;;;;;;;;;;;21.60;50.10;;;;;;5012043;28;807;-39
2022/03/04 13:02:22;;;;;;;;;;;21.70;50.20;;;;;;5009546;28;1054;-39
2022/03/04 13:04:58;;;;;;;;;;;21.70;50.10;;;;;;5009871;28;940;-39
2022/03/04 13:07:25;;;;;;;;;;;21.60;50.10;;;;;;5009640;28;1063;-39
2022/03/04 13:09:55;;;;;;;;;;;21.70;50.00;;;;;;5009646;28;1906;-33
2022/03/04 13:12:23;;;;;;;;;;;21.70;50.00;;;;;;5009145;28;880;-33
2022/03/04 13:14:50;;;;;;;;;;;21.70;50.00;;;;;;5009476;28;2071;-33
2022/03/04 13:17:16;;;;;;;;;;;21.70;50.10;;;;;;5007485;28;940;-39
2022/03/04 13:19:43;;;;;;;;;;;21.70;50.10;;;;;;5007339;28;989;-38
2022/03/04 13:22:11;;;;;;;;;;;21.70;49.90;;;;;;5007531;28;876;-39
2022/03/04 13:24:39;;;;;;;;;;;21.60;50.00;;;;;;5007533;28;980;-39
2022/03/04 13:27:08;;;;;;;;;;;21.70;49.90;;;;;;5007894;28;990;-38
2022/03/04 13:29:38;;;;;;;;;;;21.70;50.00;;;;;;5008233;28;1979;-39
2022/03/04 13:32:05;;;;;;;;;;;21.70;49.90;;;;;;5010090;28;980;-39
2022/03/04 13:34:32;;;;;;;;;;;21.70;50.00;;;;;;5008697;28;979;-39
2022/03/04 13:37:02;;;;;;;;;;;21.70;50.00;;;;;;5008114;28;1869;-39
2022/03/04 13:39:30;;;;;;;;;;;21.60;50.00;;;;;;5008117;28;995;-38
2022/03/04 13:42:14;;;;;;;;;;;21.70;50.00;;;;;;5009492;28;979;-39
2022/03/04 13:44:48;;;;;;;;;;;21.70;49.80;;;;;;5009901;28;972;-39
2022/03/04 13:47:15;;;;;;;;;;;21.70;49.80;;;;;;5009431;28;937;-39
2022/03/04 13:49:43;;;;;;;;;;;21.70;49.80;;;;;;5007158;28;1902;-39
2022/03/04 13:52:10;;;;;;;;;;;21.70;49.70;;;;;;5009078;28;1025;-37
2022/03/04 13:54:50;;;;;;;;;;;21.70;49.70;;;;;;5008254;28;943;-42
2022/03/04 13:57:32;;;;;;;;;;;21.70;49.70;;;;;;5010318;28;892;-39
2022/03/04 14:00:00;;;;;;;;;;;21.70;49.70;;;;;;5009854;28;992;-39
2022/03/04 14:02:27;;;;;;;;;;;21.70;49.80;;;;;;5008582;28;1348;-39
2022/03/04 14:04:54;;;;;;;;;;;21.70;49.70;;;;;;5009949;28;872;-39
2022/03/04 14:07:21;;;;;;;;;;;21.70;49.60;;;;;;5009879;28;1034;-38
2022/03/04 14:09:50;;;;;;;;;;;21.70;49.60;;;;;;5009958;28;1902;-38
2022/03/04 14:12:17;;;;;;;;;;;21.70;49.60;;;;;;5010584;28;941;-38
2022/03/04 14:14:45;;;;;;;;;;;21.70;49.60;;;;;;5010377;28;948;-38
2022/03/04 14:17:12;;;;;;;;;;;21.70;48.60;;;;;;5008587;28;1011;-39
2022/03/04 14:19:39;;;;;;;;;;;21.70;44.90;;;;;;5009049;28;976;-39
2022/03/04 14:22:06;;;;;;;;;;;21.70;44.40;;;;;;5011807;28;975;-39
2022/03/04 14:24:33;;;;;;;;;;;21.70;43.10;;;;;;5014155;28;1000;-39
2022/03/04 14:27:00;;;;;;;;;;;21.80;39.50;;;;;;5014524;28;1061;-39
2022/03/04 14:29:27;;;;;;;;;;;21.70;41.30;;;;;;5013457;28;1979;-39
2022/03/04 14:31:55;;;;;;;;;;;21.60;41.90;;;;;;5013452;28;952;-39
2022/03/04 14:34:21;;;;;;;;;;;21.60;41.60;;;;;;5013799;28;1182;-39
2022/03/04 14:36:49;;;;;;;;;;;21.60;39.90;;;;;;5019088;28;1044;-39
2022/03/04 14:39:18;;;;;;;;;;;21.60;40.60;;;;;;5016539;28;972;-37
2022/03/04 14:41:46;;;;;;;;;;;21.70;39.40;;;;;;5016352;28;1031;-39
2022/03/04 14:44:13;;;;;;;;;;;21.60;36.60;;;;;;5014908;28;983;-39